Time;durP1;ratioP1;P1;durP2;ratioP2;P2;SDS_P1;SDS_P2;PMS_P1;PMS_P2;Temp;Humidity;BMP_temperature;BMP_pressure;BME280_temperature;BME280_humidity;BME280_pressure;Samples;Min_cycle;Max_cycle;Signal;HPM_P1;HPM_P2
2023/08/06 00:00:28;;;;;;;6.18;5.60;;;;;;;;;;4958051;28;20063;-73
2023/08/06 00:02:54;;;;;;;9.20;6.50;;;;;;;;;;4969737;28;20054;-73
2023/08/06 00:05:21;;;;;;;7.07;5.20;;;;;;;;;;4967002;28;20441;-74
2023/08/06 00:07:47;;;;;;;9.90;6.07;;;;;;;;;;4952482;28;20038;-72
2023/08/06 00:10:13;;;;;;;9.98;6.97;;;;;;;;;;4952160;28;20035;-74
2023/08/06 00:12:39;;;;;;;10.07;6.15;;;;;;;;;;4952448;28;20035;-74
2023/08/06 00:15:05;;;;;;;6.60;6.05;;;;;;;;;;4952353;28;20534;-73
2023/08/06 00:17:31;;;;;;;6.55;5.88;;;;;;;;;;4952155;28;20098;-73
2023/08/06 00:19:57;;;;;;;7.57;6.18;;;;;;;;;;4952162;28;20103;-74
2023/08/06 00:22:23;;;;;;;14.13;9.55;;;;;;;;;;4951921;28;20043;-75
2023/08/06 00:24:53;;;;;;;7.32;6.32;;;;;;;;;;4952268;29;20043;-74
2023/08/06 00:27:19;;;;;;;8.50;6.80;;;;;;;;;;4951863;28;20054;-74
2023/08/06 00:29:45;;;;;;;9.10;7.70;;;;;;;;;;4952538;28;20129;-73
2023/08/06 00:32:12;;;;;;;22.33;7.63;;;;;;;;;;4934952;29;20106;-73
2023/08/06 00:34:39;;;;;;;10.75;6.45;;;;;;;;;;4950988;29;20035;-73
2023/08/06 00:37:05;;;;;;;8.82;7.93;;;;;;;;;;4950835;29;20049;-73
2023/08/06 00:39:31;;;;;;;15.18;7.93;;;;;;;;;;4951900;28;20130;-75
2023/08/06 00:41:58;;;;;;;20.35;9.30;;;;;;;;;;4952545;28;20039;-74
2023/08/06 00:44:23;;;;;;;9.52;7.90;;;;;;;;;;4953884;28;20035;-73
2023/08/06 00:46:49;;;;;;;15.45;9.57;;;;;;;;;;4952635;28;20520;-73
2023/08/06 00:49:16;;;;;;;19.23;11.13;;;;;;;;;;4951224;29;20062;-74
2023/08/06 00:51:42;;;;;;;23.10;11.77;;;;;;;;;;4952860;29;20510;-73
2023/08/06 00:54:08;;;;;;;20.75;11.07;;;;;;;;;;4952109;28;20516;-72
2023/08/06 00:56:35;;;;;;;21.15;11.18;;;;;;;;;;4954375;29;20039;-73
2023/08/06 00:59:02;;;;;;;12.10;8.63;;;;;;;;;;4954200;29;20074;-73
2023/08/06 01:01:28;;;;;;;15.63;8.10;;;;;;;;;;4953973;29;20035;-74
2023/08/06 01:03:54;;;;;;;19.23;11.35;;;;;;;;;;4954159;29;20473;-72
2023/08/06 01:06:19;;;;;;;21.30;9.70;;;;;;;;;;4955143;28;20039;-74
2023/08/06 01:08:49;;;;;;;18.67;9.13;;;;;;;;;;4955348;28;20078;-74
2023/08/06 01:11:28;;;;;;;18.80;11.80;;;;;;;;;;4954202;29;20078;-73
2023/08/06 01:14:02;;;;;;;14.65;9.32;;;;;;;;;;4958910;28;20041;-74
2023/08/06 01:16:28;;;;;;;13.93;8.60;;;;;;;;;;4955556;29;20097;-74
2023/08/06 01:18:54;;;;;;;11.02;8.07;;;;;;;;;;4953927;29;20473;-73
2023/08/06 01:21:20;;;;;;;12.77;8.23;;;;;;;;;;4954792;28;20043;-74
2023/08/06 01:23:46;;;;;;;11.98;9.00;;;;;;;;;;4955031;28;20391;-73
2023/08/06 01:26:45;;;;;;;11.27;9.00;;;;;;;;;;4954595;28;20047;-75
2023/08/06 01:29:24;;;;;;;13.73;11.50;;;;;;;;;;4932440;28;20051;-74
2023/08/06 01:31:50;;;;;;;21.08;13.35;;;;;;;;;;4954872;29;20093;-73
2023/08/06 01:34:21;;;;;;;15.27;12.65;;;;;;;;;;4953489;28;20035;-75
2023/08/06 01:36:49;;;;;;;15.35;13.75;;;;;;;;;;4953512;29;20543;-74
2023/08/06 01:39:15;;;;;;;17.52;13.30;;;;;;;;;;4953300;29;20535;-73
2023/08/06 01:41:41;;;;;;;24.48;14.30;;;;;;;;;;4954771;29;20062;-75
2023/08/06 01:44:08;;;;;;;29.45;14.32;;;;;;;;;;4954689;28;20043;-73
2023/08/06 01:46:34;;;;;;;17.98;12.80;;;;;;;;;;4953231;29;20095;-75
2023/08/06 01:49:00;;;;;;;27.65;12.77;;;;;;;;;;4954633;28;20274;-74
2023/08/06 01:51:26;;;;;;;23.55;10.30;;;;;;;;;;4954411;28;20353;-72
2023/08/06 01:53:52;;;;;;;18.75;10.48;;;;;;;;;;4953075;29;20042;-74
2023/08/06 01:56:18;;;;;;;15.70;10.57;;;;;;;;;;4954370;28;20058;-74
2023/08/06 01:58:45;;;;;;;18.20;11.77;;;;;;;;;;4953536;29;20430;-75
2023/08/06 02:01:11;;;;;;;21.30;11.18;;;;;;;;;;4953781;29;20414;-74
2023/08/06 02:03:37;;;;;;;18.55;11.32;;;;;;;;;;4953153;29;20035;-73
2023/08/06 02:06:03;;;;;;;21.17;12.27;;;;;;;;;;4954591;28;20055;-73
2023/08/06 02:08:29;;;;;;;24.30;12.43;;;;;;;;;;4954651;28;20054;-73
2023/08/06 02:10:55;;;;;;;17.75;12.90;;;;;;;;;;4955719;29;20506;-73
2023/08/06 02:13:21;;;;;;;21.77;13.90;;;;;;;;;;4955103;28;20040;-73
2023/08/06 02:15:47;;;;;;;17.23;14.38;;;;;;;;;;4969915;28;20049;-72
2023/08/06 02:18:14;;;;;;;19.05;13.25;;;;;;;;;;4954466;28;20126;-73
2023/08/06 02:20:41;;;;;;;15.27;12.00;;;;;;;;;;4954620;29;20059;-75
2023/08/06 02:23:07;;;;;;;12.82;11.20;;;;;;;;;;4956438;28;20043;-73
2023/08/06 02:25:32;;;;;;;15.73;11.15;;;;;;;;;;4955971;28;20038;-73
2023/08/06 02:28:00;;;;;;;13.70;10.48;;;;;;;;;;4956039;29;20158;-73
2023/08/06 02:30:26;;;;;;;16.15;10.18;;;;;;;;;;4957590;29;20039;-74
2023/08/06 02:32:52;;;;;;;15.65;10.55;;;;;;;;;;4956943;29;20039;-75
2023/08/06 02:35:17;;;;;;;20.50;12.18;;;;;;;;;;4958641;28;20043;-74
2023/08/06 02:37:45;;;;;;;21.27;11.63;;;;;;;;;;4957591;29;20047;-74
2023/08/06 02:40:11;;;;;;;18.70;11.07;;;;;;;;;;4956954;29;20051;-73
2023/08/06 02:42:37;;;;;;;23.25;11.43;;;;;;;;;;4956451;29;20035;-74
2023/08/06 02:45:03;;;;;;;12.27;10.57;;;;;;;;;;4953015;29;20089;-75
2023/08/06 02:47:31;;;;;;;21.77;11.35;;;;;;;;;;4953496;28;20569;-74
2023/08/06 02:49:58;;;;;;;17.65;11.63;;;;;;;;;;4952657;29;20059;-73
2023/08/06 02:52:24;;;;;;;18.83;11.07;;;;;;;;;;4952215;29;20039;-73
2023/08/06 02:54:51;;;;;;;14.77;11.55;;;;;;;;;;4952095;29;20046;-74
2023/08/06 02:57:17;;;;;;;18.95;12.02;;;;;;;;;;4951831;29;20051;-74
2023/08/06 02:59:43;;;;;;;20.85;12.35;;;;;;;;;;4952260;29;20039;-73
2023/08/06 03:02:16;;;;;;;19.02;12.75;;;;;;;;;;4952250;29;20100;-73
2023/08/06 03:05:01;;;;;;;24.23;12.20;;;;;;;;;;4953439;28;20038;-73
2023/08/06 03:07:33;;;;;;;21.40;12.75;;;;;;;;;;4936651;29;20041;-74
2023/08/06 03:10:07;;;;;;;17.50;13.02;;;;;;;;;;4959032;29;20038;-74
2023/08/06 03:12:33;;;;;;;24.45;12.77;;;;;;;;;;4975541;28;20046;-75
2023/08/06 03:15:00;;;;;;;20.65;13.10;;;;;;;;;;4952553;29;20043;-74
2023/08/06 03:17:27;;;;;;;17.08;11.20;;;;;;;;;;4950990;28;20556;-74
2023/08/06 03:19:53;;;;;;;15.48;9.90;;;;;;;;;;4952841;28;20602;-74
2023/08/06 03:22:19;;;;;;;12.18;10.40;;;;;;;;;;4951526;29;20105;-74
2023/08/06 03:24:45;;;;;;;20.42;11.18;;;;;;;;;;4951665;29;20047;-75
2023/08/06 03:27:12;;;;;;;21.67;11.48;;;;;;;;;;4951792;29;20043;-75
2023/08/06 03:29:41;;;;;;;14.55;10.38;;;;;;;;;;4951244;29;20043;-74
2023/08/06 03:32:07;;;;;;;19.38;12.20;;;;;;;;;;4951660;29;20395;-75
2023/08/06 03:34:34;;;;;;;11.00;8.60;;;;;;;;;;4951173;29;20126;-75
2023/08/06 03:37:00;;;;;;;25.88;11.27;;;;;;;;;;4951587;29;20086;-74
2023/08/06 03:39:26;;;;;;;22.00;12.05;;;;;;;;;;4951936;29;20032;-75
2023/08/06 03:41:52;;;;;;;17.52;11.98;;;;;;;;;;4953641;29;20187;-73
2023/08/06 03:44:19;;;;;;;17.40;11.40;;;;;;;;;;4953276;29;20070;-74
2023/08/06 03:46:45;;;;;;;21.88;11.85;;;;;;;;;;4953408;29;20047;-75
2023/08/06 03:49:11;;;;;;;17.95;11.15;;;;;;;;;;4955011;28;20054;-74
2023/08/06 03:51:37;;;;;;;21.90;10.20;;;;;;;;;;4953617;29;20035;-74
2023/08/06 03:54:03;;;;;;;20.10;11.38;;;;;;;;;;4954749;28;20050;-73
2023/08/06 03:56:29;;;;;;;18.95;10.18;;;;;;;;;;4954369;28;20418;-74
2023/08/06 03:58:56;;;;;;;21.33;11.93;;;;;;;;;;4954023;29;20545;-75
2023/08/06 04:01:23;;;;;;;17.25;10.45;;;;;;;;;;4952103;29;20458;-75
2023/08/06 04:03:49;;;;;;;23.65;10.68;;;;;;;;;;4952610;28;20050;-74
2023/08/06 04:06:16;;;;;;;17.05;9.73;;;;;;;;;;4951395;29;20045;-75
2023/08/06 04:08:42;;;;;;;11.52;9.25;;;;;;;;;;4951299;29;20035;-74
2023/08/06 04:11:09;;;;;;;13.52;10.70;;;;;;;;;;4954495;29;20450;-75
2023/08/06 04:13:35;;;;;;;15.95;10.30;;;;;;;;;;4952379;29;20039;-73
2023/08/06 04:16:04;;;;;;;9.10;7.82;;;;;;;;;;4952169;28;20517;-74
2023/08/06 04:18:31;;;;;;;8.75;7.95;;;;;;;;;;4950533;29;20039;-74
2023/08/06 04:20:57;;;;;;;13.68;8.73;;;;;;;;;;4952325;28;20042;-75
2023/08/06 04:23:25;;;;;;;19.65;8.60;;;;;;;;;;4950892;29;20039;-74
2023/08/06 04:25:57;;;;;;;19.02;8.18;;;;;;;;;;4951235;29;20521;-75
2023/08/06 04:28:26;;;;;;;11.77;8.90;;;;;;;;;;4936523;28;20043;-75
2023/08/06 04:30:53;;;;;;;11.85;7.95;;;;;;;;;;4956326;28;20074;-76
2023/08/06 04:33:20;;;;;;;16.15;9.48;;;;;;;;;;4954812;29;20087;-75
2023/08/06 04:35:47;;;;;;;19.48;8.75;;;;;;;;;;4954784;29;20198;-75
2023/08/06 04:38:13;;;;;;;14.57;8.15;;;;;;;;;;4955862;28;20146;-75
2023/08/06 04:40:39;;;;;;;18.05;8.20;;;;;;;;;;4954384;29;20117;-76
2023/08/06 04:43:05;;;;;;;13.00;7.00;;;;;;;;;;4955942;28;20083;-76
2023/08/06 04:45:33;;;;;;;12.63;7.30;;;;;;;;;;4954392;29;20075;-75
2023/08/06 04:48:00;;;;;;;12.27;7.65;;;;;;;;;;4955700;28;20031;-75
2023/08/06 04:50:26;;;;;;;19.90;8.75;;;;;;;;;;4955529;28;20471;-75
2023/08/06 04:52:52;;;;;;;17.92;7.45;;;;;;;;;;4955689;29;20039;-76
2023/08/06 04:55:18;;;;;;;12.70;7.60;;;;;;;;;;4955719;28;20043;-75
2023/08/06 04:57:45;;;;;;;15.88;7.07;;;;;;;;;;4953950;29;20051;-74
2023/08/06 05:00:12;;;;;;;8.98;7.13;;;;;;;;;;4954380;29;20038;-75
2023/08/06 05:02:38;;;;;;;14.52;7.43;;;;;;;;;;4955236;29;20043;-75
2023/08/06 05:05:04;;;;;;;8.77;6.90;;;;;;;;;;4955563;28;20047;-76
2023/08/06 05:07:30;;;;;;;19.98;7.38;;;;;;;;;;4955103;28;20077;-74
2023/08/06 05:09:56;;;;;;;19.48;7.22;;;;;;;;;;4955364;29;20134;-76
2023/08/06 05:12:22;;;;;;;19.67;7.60;;;;;;;;;;4955647;28;20043;-76
2023/08/06 05:14:48;;;;;;;9.85;6.70;;;;;;;;;;4953674;29;20176;-75
2023/08/06 05:17:14;;;;;;;13.00;6.53;;;;;;;;;;4955060;28;20214;-75
2023/08/06 05:19:40;;;;;;;10.60;6.30;;;;;;;;;;4954758;28;20038;-76
2023/08/06 05:22:06;;;;;;;8.93;6.40;;;;;;;;;;4955093;29;20039;-76
2023/08/06 05:24:32;;;;;;;9.43;5.80;;;;;;;;;;4954634;28;20074;-77
2023/08/06 05:26:58;;;;;;;11.82;6.22;;;;;;;;;;4955076;28;20130;-76
2023/08/06 05:29:24;;;;;;;11.43;5.93;;;;;;;;;;4955052;29;20323;-76
2023/08/06 05:31:50;;;;;;;13.57;6.65;;;;;;;;;;4954929;28;20089;-75
2023/08/06 05:34:16;;;;;;;15.68;6.55;;;;;;;;;;4953812;29;20031;-74
2023/08/06 05:36:42;;;;;;;10.68;5.85;;;;;;;;;;4954484;29;20051;-75
2023/08/06 05:39:08;;;;;;;11.57;6.40;;;;;;;;;;4954981;28;20035;-76
2023/08/06 05:41:34;;;;;;;11.00;6.10;;;;;;;;;;4953886;28;20074;-76
2023/08/06 05:44:00;;;;;;;8.10;5.47;;;;;;;;;;4954705;28;20117;-75
2023/08/06 05:46:26;;;;;;;19.45;7.15;;;;;;;;;;4954716;28;20676;-77
2023/08/06 05:48:52;;;;;;;9.30;5.75;;;;;;;;;;4954376;28;20434;-75
2023/08/06 05:51:19;;;;;;;17.38;6.00;;;;;;;;;;4954720;28;20115;-74
2023/08/06 05:53:46;;;;;;;8.75;5.38;;;;;;;;;;4954118;28;20122;-75
2023/08/06 05:56:12;;;;;;;8.73;5.75;;;;;;;;;;4954353;29;20118;-76
2023/08/06 05:58:39;;;;;;;13.45;5.03;;;;;;;;;;4953875;28;20054;-75
2023/08/06 06:01:05;;;;;;;8.57;5.35;;;;;;;;;;4954629;29;20406;-77
2023/08/06 06:03:31;;;;;;;8.18;5.10;;;;;;;;;;4954226;28;20047;-75
2023/08/06 06:05:57;;;;;;;9.30;5.78;;;;;;;;;;4954513;29;20122;-76
2023/08/06 06:08:24;;;;;;;9.38;5.50;;;;;;;;;;4953362;29;20047;-74
2023/08/06 06:10:50;;;;;;;11.90;5.28;;;;;;;;;;4954299;28;20460;-75
2023/08/06 06:13:16;;;;;;;15.80;6.22;;;;;;;;;;4954822;28;20494;-76
2023/08/06 06:15:42;;;;;;;11.55;5.50;;;;;;;;;;4955487;28;20035;-76
2023/08/06 06:18:09;;;;;;;7.60;5.43;;;;;;;;;;4957666;29;20051;-75
2023/08/06 06:20:35;;;;;;;11.52;5.80;;;;;;;;;;4964244;28;20035;-75
2023/08/06 06:23:01;;;;;;;10.70;5.78;;;;;;;;;;4958313;29;20135;-75
2023/08/06 06:25:27;;;;;;;7.13;5.40;;;;;;;;;;4954257;29;20580;-75
2023/08/06 06:27:53;;;;;;;8.57;5.50;;;;;;;;;;4954072;28;20037;-77
2023/08/06 06:30:19;;;;;;;7.80;5.43;;;;;;;;;;4952661;29;20039;-76
2023/08/06 06:32:45;;;;;;;7.00;5.45;;;;;;;;;;4952623;29;20031;-77
2023/08/06 06:35:12;;;;;;;5.97;5.32;;;;;;;;;;4952813;29;20050;-74
2023/08/06 06:37:38;;;;;;;13.18;5.47;;;;;;;;;;4953534;28;20051;-75
2023/08/06 06:40:04;;;;;;;6.38;5.45;;;;;;;;;;4953808;28;20205;-75
2023/08/06 06:42:30;;;;;;;15.18;5.78;;;;;;;;;;4953467;29;20474;-75
2023/08/06 06:45:00;;;;;;;12.85;5.60;;;;;;;;;;4952503;29;20038;-75
2023/08/06 06:47:26;;;;;;;10.50;5.70;;;;;;;;;;4968602;28;20117;-75
2023/08/06 06:49:52;;;;;;;12.10;5.70;;;;;;;;;;4952087;29;20031;-74
2023/08/06 06:52:18;;;;;;;7.30;5.60;;;;;;;;;;4952743;28;20054;-75
2023/08/06 06:54:44;;;;;;;10.70;5.00;;;;;;;;;;4953272;29;20388;-76
2023/08/06 06:57:10;;;;;;;5.65;5.13;;;;;;;;;;4953118;28;20110;-75
2023/08/06 06:59:36;;;;;;;13.20;5.30;;;;;;;;;;4953059;29;20122;-76
2023/08/06 07:02:02;;;;;;;9.52;5.10;;;;;;;;;;4953414;28;20517;-76
2023/08/06 07:04:28;;;;;;;5.15;4.65;;;;;;;;;;4953231;29;20039;-75
2023/08/06 07:06:54;;;;;;;11.38;4.90;;;;;;;;;;4953960;28;20042;-76
2023/08/06 07:09:20;;;;;;;9.40;5.35;;;;;;;;;;4956298;28;20043;-76
2023/08/06 07:11:46;;;;;;;8.80;5.03;;;;;;;;;;4953434;29;20037;-76
2023/08/06 07:14:20;;;;;;;14.45;5.40;;;;;;;;;;5191149;27;20552;-76
2023/08/06 07:16:46;;;;;;;13.40;5.28;;;;;;;;;;5169811;27;20054;-76
2023/08/06 07:19:12;;;;;;;10.50;5.57;;;;;;;;;;5151195;27;20045;-76
2023/08/06 07:21:38;;;;;;;10.98;5.32;;;;;;;;;;5169741;27;20031;-76
2023/08/06 07:24:04;;;;;;;8.80;5.22;;;;;;;;;;5169864;27;20461;-77
2023/08/06 07:26:30;;;;;;;11.55;5.45;;;;;;;;;;5169899;27;20034;-74
2023/08/06 07:28:56;;;;;;;9.65;5.03;;;;;;;;;;5169462;27;20489;-75
2023/08/06 07:31:22;;;;;;;9.43;5.20;;;;;;;;;;5169831;27;20598;-75
2023/08/06 07:33:48;;;;;;;6.50;4.75;;;;;;;;;;5150744;27;20042;-76
2023/08/06 07:36:14;;;;;;;5.10;4.60;;;;;;;;;;5169914;27;20067;-75
2023/08/06 07:38:40;;;;;;;11.00;5.28;;;;;;;;;;5169452;27;20083;-76
2023/08/06 07:41:07;;;;;;;13.90;5.70;;;;;;;;;;5150900;27;20030;-77
2023/08/06 07:43:33;;;;;;;6.40;4.30;;;;;;;;;;5169562;27;20039;-75
2023/08/06 07:46:00;;;;;;;12.98;5.32;;;;;;;;;;5169861;27;20038;-76
2023/08/06 07:48:26;;;;;;;7.78;4.30;;;;;;;;;;5169864;27;20037;-76
2023/08/06 07:50:55;;;;;;;5.38;4.47;;;;;;;;;;5150744;27;20030;-76
2023/08/06 07:53:21;;;;;;;;;;;;;;;;;;5134052;27;20133;-75
2023/08/06 07:55:51;;;;;;;7.30;4.78;;;;;;;;;;5134899;27;19919;-77
2023/08/06 07:58:17;;;;;;;7.78;4.70;;;;;;;;;;5148491;27;20041;-77
2023/08/06 08:00:45;;;;;;;9.60;4.80;;;;;;;;;;5148345;27;20123;-76
2023/08/06 08:03:14;;;;;;;9.48;4.53;;;;;;;;;;5148705;27;20524;-75
2023/08/06 08:05:41;;;;;;;4.35;3.95;;;;;;;;;;5129707;27;20555;-76
2023/08/06 08:08:07;;;;;;;12.75;4.40;;;;;;;;;;5148343;27;20038;-76
2023/08/06 08:10:34;;;;;;;8.38;4.80;;;;;;;;;;5148286;27;20561;-77
2023/08/06 08:13:00;;;;;;;6.88;4.82;;;;;;;;;;5129578;27;20424;-77
2023/08/06 08:15:28;;;;;;;5.20;3.83;;;;;;;;;;5148147;27;20397;-76
2023/08/06 08:17:54;;;;;;;7.22;4.05;;;;;;;;;;5129593;27;20057;-75
2023/08/06 08:20:20;;;;;;;10.10;4.20;;;;;;;;;;5148137;27;20500;-77
2023/08/06 08:22:46;;;;;;;6.30;4.38;;;;;;;;;;5129853;27;20065;-76
2023/08/06 08:25:12;;;;;;;5.13;4.22;;;;;;;;;;5136996;27;20081;-75
2023/08/06 08:27:38;;;;;;;7.30;4.22;;;;;;;;;;5133917;27;20031;-76
2023/08/06 08:30:04;;;;;;;6.18;3.90;;;;;;;;;;5134105;27;20042;-76
2023/08/06 08:32:30;;;;;;;6.72;3.75;;;;;;;;;;5134005;27;20131;-75
2023/08/06 08:34:56;;;;;;;4.50;3.97;;;;;;;;;;5133754;27;20490;-77
2023/08/06 08:37:23;;;;;;;4.22;3.70;;;;;;;;;;5115649;27;20512;-75
2023/08/06 08:39:49;;;;;;;4.85;4.00;;;;;;;;;;5115405;27;20118;-75
2023/08/06 08:42:15;;;;;;;4.68;3.70;;;;;;;;;;5115683;27;20050;-76
2023/08/06 08:44:42;;;;;;;4.68;4.28;;;;;;;;;;5115235;27;20039;-76
2023/08/06 08:47:10;;;;;;;4.22;2.78;;;;;;;;;;5133860;27;20038;-76
2023/08/06 08:49:37;;;;;;;7.38;4.18;;;;;;;;;;5133662;27;20050;-76
2023/08/06 08:52:06;;;;;;;5.85;3.42;;;;;;;;;;5133713;27;20031;-75
2023/08/06 08:54:32;;;;;;;4.78;3.30;;;;;;;;;;5133512;27;20118;-76
2023/08/06 08:56:58;;;;;;;6.20;4.53;;;;;;;;;;5133406;27;20127;-76
2023/08/06 08:59:24;;;;;;;4.38;4.00;;;;;;;;;;5133241;27;20071;-75
2023/08/06 09:01:51;;;;;;;7.55;3.85;;;;;;;;;;5115038;27;20058;-76
2023/08/06 09:04:17;;;;;;;8.25;4.10;;;;;;;;;;5115240;27;20038;-75
2023/08/06 09:06:44;;;;;;;4.65;3.67;;;;;;;;;;5133375;27;20501;-76
2023/08/06 09:09:12;;;;;;;7.90;4.32;;;;;;;;;;5114985;27;20031;-75
2023/08/06 09:11:43;;;;;;;4.20;3.90;;;;;;;;;;5114932;27;20035;-76
2023/08/06 09:14:09;;;;;;;5.30;4.00;;;;;;;;;;5132784;27;20055;-76
2023/08/06 09:16:35;;;;;;;6.80;3.97;;;;;;;;;;5133139;27;20035;-76
2023/08/06 09:19:08;;;;;;;4.40;4.10;;;;;;;;;;5132819;27;20042;-77
2023/08/06 09:21:36;;;;;;;7.65;4.20;;;;;;;;;;5133142;27;20031;-75
2023/08/06 09:24:06;;;;;;;4.88;4.38;;;;;;;;;;5132691;27;20462;-75
2023/08/06 09:26:36;;;;;;;5.65;3.40;;;;;;;;;;5115128;27;20035;-75
2023/08/06 09:29:03;;;;;;;5.70;4.45;;;;;;;;;;5133414;27;20382;-77
2023/08/06 09:31:34;;;;;;;4.28;3.95;;;;;;;;;;5098514;27;20027;-76
2023/08/06 09:34:00;;;;;;;6.68;3.80;;;;;;;;;;5135416;27;20158;-76
2023/08/06 09:36:27;;;;;;;5.57;4.65;;;;;;;;;;5137604;27;20502;-77
2023/08/06 09:38:53;;;;;;;8.68;4.40;;;;;;;;;;5125854;27;20031;-76
2023/08/06 09:41:31;;;;;;;4.28;3.95;;;;;;;;;;5144779;27;20122;-76
2023/08/06 09:43:57;;;;;;;3.83;3.53;;;;;;;;;;5135085;27;20047;-76
2023/08/06 09:46:23;;;;;;;9.68;3.78;;;;;;;;;;5114409;27;20482;-75
2023/08/06 09:48:49;;;;;;;6.50;4.22;;;;;;;;;;5132374;27;20057;-76
2023/08/06 09:51:16;;;;;;;5.00;4.60;;;;;;;;;;5132654;27;20039;-76
2023/08/06 09:53:42;;;;;;;5.97;4.55;;;;;;;;;;5132540;27;20320;-75
2023/08/06 09:56:09;;;;;;;5.93;3.90;;;;;;;;;;5132409;27;20284;-75
2023/08/06 09:58:35;;;;;;;4.88;4.05;;;;;;;;;;5114611;27;20159;-76
2023/08/06 10:01:02;;;;;;;5.65;4.70;;;;;;;;;;5132462;27;20084;-76
2023/08/06 10:03:28;;;;;;;8.43;4.45;;;;;;;;;;5132555;27;20035;-76
2023/08/06 10:05:58;;;;;;;4.57;4.07;;;;;;;;;;5080355;27;20027;-76
2023/08/06 10:08:24;;;;;;;4.65;4.15;;;;;;;;;;5137353;27;20500;-75
2023/08/06 10:10:50;;;;;;;6.20;4.05;;;;;;;;;;5133451;27;20083;-75
2023/08/06 10:13:16;;;;;;;7.65;4.60;;;;;;;;;;5113751;27;20474;-76
2023/08/06 10:15:42;;;;;;;5.53;4.40;;;;;;;;;;5113537;27;20632;-78
2023/08/06 10:18:08;;;;;;;4.38;4.00;;;;;;;;;;5132077;27;20039;-76
2023/08/06 10:20:35;;;;;;;5.80;4.18;;;;;;;;;;5131829;27;20031;-75
2023/08/06 10:23:01;;;;;;;7.57;4.15;;;;;;;;;;5131464;27;20031;-75
2023/08/06 10:25:32;;;;;;;4.65;4.25;;;;;;;;;;5131808;27;20023;-75
2023/08/06 10:27:58;;;;;;;7.57;4.13;;;;;;;;;;5131566;27;20043;-76
2023/08/06 10:30:31;;;;;;;6.40;4.63;;;;;;;;;;5131657;27;20027;-75
2023/08/06 10:33:00;;;;;;;7.53;4.43;;;;;;;;;;5131514;27;20099;-74
2023/08/06 10:35:50;;;;;;;4.93;4.10;;;;;;;;;;5131704;27;20114;-76
2023/08/06 10:38:16;;;;;;;5.97;4.13;;;;;;;;;;5118389;27;20047;-77
2023/08/06 10:40:55;;;;;;;4.60;4.20;;;;;;;;;;5131548;27;20038;-77
2023/08/06 10:43:28;;;;;;;9.75;4.63;;;;;;;;;;5131571;27;20034;-76
2023/08/06 10:45:54;;;;;;;8.27;4.32;;;;;;;;;;5112962;27;20079;-75
2023/08/06 10:48:30;;;;;;;5.15;4.43;;;;;;;;;;5131357;27;20031;-77
2023/08/06 10:50:56;;;;;;;8.70;4.15;;;;;;;;;;5112845;27;20413;-76
2023/08/06 10:53:22;;;;;;;6.75;4.05;;;;;;;;;;5131299;27;20043;-75
2023/08/06 10:55:48;;;;;;;5.30;4.13;;;;;;;;;;5131164;27;20034;-75
2023/08/06 10:58:17;;;;;;;5.53;3.72;;;;;;;;;;5131153;27;20405;-75
2023/08/06 11:00:44;;;;;;;5.63;4.28;;;;;;;;;;5096061;28;20070;-76
2023/08/06 11:03:10;;;;;;;10.43;4.50;;;;;;;;;;5131183;27;20034;-75
2023/08/06 11:05:36;;;;;;;4.72;3.88;;;;;;;;;;5131121;27;20043;-76
2023/08/06 11:08:02;;;;;;;10.20;4.53;;;;;;;;;;5130885;27;20038;-76
2023/08/06 11:10:28;;;;;;;5.03;4.10;;;;;;;;;;5131410;27;20118;-76
2023/08/06 11:12:54;;;;;;;7.75;3.90;;;;;;;;;;5130743;27;20114;-76
2023/08/06 11:15:20;;;;;;;11.85;3.97;;;;;;;;;;5112773;27;20035;-77
2023/08/06 11:17:47;;;;;;;4.90;4.50;;;;;;;;;;5131072;27;20057;-77
2023/08/06 11:20:13;;;;;;;5.32;3.90;;;;;;;;;;5131068;27;20077;-77
2023/08/06 11:22:39;;;;;;;4.65;4.25;;;;;;;;;;5095948;28;20035;-74
2023/08/06 11:25:06;;;;;;;8.57;4.50;;;;;;;;;;5130661;27;20042;-76
2023/08/06 11:27:32;;;;;;;8.85;4.07;;;;;;;;;;5096341;28;20043;-76
2023/08/06 11:29:58;;;;;;;6.55;4.53;;;;;;;;;;5131391;27;20046;-76
2023/08/06 11:32:24;;;;;;;7.78;4.15;;;;;;;;;;5095989;27;20035;-76
2023/08/06 11:34:50;;;;;;;7.13;4.20;;;;;;;;;;5112757;27;20039;-75
2023/08/06 11:37:17;;;;;;;6.25;4.55;;;;;;;;;;5131080;27;20027;-76
2023/08/06 11:39:47;;;;;;;5.47;3.80;;;;;;;;;;5095971;28;20068;-76
2023/08/06 11:42:13;;;;;;;4.40;3.92;;;;;;;;;;5112630;27;20413;-76
2023/08/06 11:44:44;;;;;;;6.03;4.00;;;;;;;;;;5112888;27;20027;-76
2023/08/06 11:47:15;;;;;;;3.83;3.45;;;;;;;;;;5130683;27;20068;-76
2023/08/06 11:49:45;;;;;;;4.50;4.10;;;;;;;;;;5130826;27;20038;-76
2023/08/06 11:52:11;;;;;;;;;;;;;;;;;;5113284;27;20034;-76
2023/08/06 11:54:37;;;;;;;4.28;3.88;;;;;;;;;;5130990;27;19916;-76
2023/08/06 11:57:06;;;;;;;5.38;3.75;;;;;;;;;;5130592;27;20408;-75
2023/08/06 11:59:33;;;;;;;4.80;4.40;;;;;;;;;;5132117;27;20039;-76
2023/08/06 12:02:05;;;;;;;4.43;4.03;;;;;;;;;;5134464;27;20030;-75
2023/08/06 12:04:32;;;;;;;8.55;3.75;;;;;;;;;;5134659;27;20045;-76
2023/08/06 12:07:06;;;;;;;4.22;3.88;;;;;;;;;;5116043;27;20042;-76
2023/08/06 12:09:31;;;;;;;4.22;3.80;;;;;;;;;;5134688;27;20228;-75
2023/08/06 12:11:57;;;;;;;4.05;3.33;;;;;;;;;;5134240;27;20033;-77
2023/08/06 12:14:23;;;;;;;5.25;3.40;;;;;;;;;;5134375;27;20508;-75
2023/08/06 12:16:50;;;;;;;4.90;4.38;;;;;;;;;;5134458;27;20083;-76
2023/08/06 12:19:16;;;;;;;4.68;4.10;;;;;;;;;;5134469;27;20046;-77
2023/08/06 12:21:42;;;;;;;9.00;4.65;;;;;;;;;;5134455;27;20031;-76
2023/08/06 12:24:08;;;;;;;4.90;3.78;;;;;;;;;;5134289;27;20532;-77
2023/08/06 12:26:34;;;;;;;5.18;4.78;;;;;;;;;;5134144;27;20405;-76
2023/08/06 12:29:00;;;;;;;6.78;4.35;;;;;;;;;;5134133;27;20042;-75
2023/08/06 12:31:26;;;;;;;4.78;4.25;;;;;;;;;;5134180;27;20038;-76
2023/08/06 12:33:52;;;;;;;6.25;4.22;;;;;;;;;;5134047;27;20092;-75
2023/08/06 12:36:18;;;;;;;6.57;6.05;;;;;;;;;;5134241;27;20074;-77
2023/08/06 12:38:44;;;;;;;6.93;4.63;;;;;;;;;;5134204;27;20159;-75
2023/08/06 12:41:10;;;;;;;4.22;3.88;;;;;;;;;;5115407;27;20209;-74
2023/08/06 12:43:36;;;;;;;5.85;4.38;;;;;;;;;;5134428;27;20038;-75
2023/08/06 12:46:03;;;;;;;4.47;4.07;;;;;;;;;;5134208;27;20027;-75
2023/08/06 12:48:29;;;;;;;5.13;4.32;;;;;;;;;;5134348;27;20217;-77
2023/08/06 12:50:55;;;;;;;5.07;4.30;;;;;;;;;;5115570;27;20125;-76
2023/08/06 12:53:22;;;;;;;7.38;4.70;;;;;;;;;;5135020;27;20039;-74
2023/08/06 12:55:48;;;;;;;6.70;4.90;;;;;;;;;;5117625;27;20043;-76
2023/08/06 12:58:14;;;;;;;7.43;4.35;;;;;;;;;;5137017;27;20104;-77
2023/08/06 13:00:40;;;;;;;5.00;4.60;;;;;;;;;;5142328;27;20046;-77
2023/08/06 13:03:06;;;;;;;6.82;4.53;;;;;;;;;;5123688;27;20401;-77
2023/08/06 13:05:32;;;;;;;7.25;4.55;;;;;;;;;;5139473;27;20039;-76
2023/08/06 13:07:58;;;;;;;7.55;4.75;;;;;;;;;;5134686;27;20113;-76
2023/08/06 13:10:25;;;;;;;7.57;5.20;;;;;;;;;;5136995;27;20039;-75
2023/08/06 13:12:51;;;;;;;4.18;3.80;;;;;;;;;;5134336;27;20047;-75
2023/08/06 13:15:19;;;;;;;7.85;4.40;;;;;;;;;;5097773;27;20039;-76
2023/08/06 13:17:45;;;;;;;5.35;4.25;;;;;;;;;;5115043;27;20154;-76
2023/08/06 13:20:11;;;;;;;5.88;4.22;;;;;;;;;;5132853;27;20074;-76
2023/08/06 13:22:37;;;;;;;5.75;5.07;;;;;;;;;;5114876;27;20034;-75
2023/08/06 13:25:03;;;;;;;5.10;4.60;;;;;;;;;;5132696;27;20525;-76
2023/08/06 13:27:30;;;;;;;6.80;4.93;;;;;;;;;;5133115;27;20509;-76
2023/08/06 13:29:55;;;;;;;5.43;4.68;;;;;;;;;;5132595;27;20042;-75
2023/08/06 13:32:21;;;;;;;5.93;4.50;;;;;;;;;;5132879;27;20062;-76
2023/08/06 13:34:47;;;;;;;4.88;4.45;;;;;;;;;;5132743;27;20642;-76
2023/08/06 13:37:13;;;;;;;6.35;4.35;;;;;;;;;;5132416;27;20110;-76
2023/08/06 13:39:39;;;;;;;5.95;4.90;;;;;;;;;;5132723;27;20501;-76
2023/08/06 13:42:06;;;;;;;5.30;4.55;;;;;;;;;;5132683;27;20038;-74
2023/08/06 13:44:35;;;;;;;7.55;4.63;;;;;;;;;;5132700;27;20039;-76
2023/08/06 13:47:02;;;;;;;4.80;4.35;;;;;;;;;;5132373;27;20560;-75
2023/08/06 13:49:28;;;;;;;8.77;4.20;;;;;;;;;;5114288;27;20412;-74
2023/08/06 13:51:54;;;;;;;9.23;4.45;;;;;;;;;;5114324;27;20031;-75
2023/08/06 13:54:21;;;;;;;4.53;3.60;;;;;;;;;;5132069;27;20050;-76
2023/08/06 13:56:47;;;;;;;4.55;3.95;;;;;;;;;;5132377;27;20035;-75
2023/08/06 13:59:13;;;;;;;5.63;4.47;;;;;;;;;;5131989;27;20122;-75
2023/08/06 14:01:39;;;;;;;5.15;4.72;;;;;;;;;;5132478;27;20042;-76
2023/08/06 14:04:05;;;;;;;6.15;4.57;;;;;;;;;;5113896;27;20040;-76
2023/08/06 14:06:31;;;;;;;6.53;4.80;;;;;;;;;;5132220;27;20041;-76
2023/08/06 14:08:57;;;;;;;6.95;5.03;;;;;;;;;;5132193;27;20034;-76
2023/08/06 14:11:23;;;;;;;6.47;4.60;;;;;;;;;;5132096;27;20085;-76
2023/08/06 14:13:49;;;;;;;5.10;4.60;;;;;;;;;;5131929;27;20055;-76
2023/08/06 14:16:15;;;;;;;11.80;4.50;;;;;;;;;;5113457;27;20039;-75
2023/08/06 14:18:41;;;;;;;4.25;3.80;;;;;;;;;;5132152;27;20035;-76
2023/08/06 14:21:08;;;;;;;9.27;4.60;;;;;;;;;;5113281;27;20023;-76
2023/08/06 14:23:34;;;;;;;5.00;4.50;;;;;;;;;;5131372;27;20035;-75
2023/08/06 14:26:00;;;;;;;6.45;4.25;;;;;;;;;;5131522;27;20038;-75
2023/08/06 14:28:26;;;;;;;5.90;5.20;;;;;;;;;;5131751;27;20035;-76
2023/08/06 14:30:52;;;;;;;9.02;4.80;;;;;;;;;;5112999;27;20110;-75
2023/08/06 14:33:18;;;;;;;6.70;4.65;;;;;;;;;;5131367;27;20122;-77